sensor_id;sensor_type;location;lat;lon;timestamp;P1;durP1;ratioP1;P2;durP2;ratioP2
70505;SDS011;58032;49.820;6.274;2024-01-25T00:00:54;18.35;;;1.90;;
70505;SDS011;58032;49.820;6.274;2024-01-25T00:03:21;18.55;;;2.17;;
70505;SDS011;58032;49.820;6.274;2024-01-25T00:05:48;12.90;;;1.90;;
70505;SDS011;58032;49.820;6.274;2024-01-25T00:08:15;20.55;;;2.05;;
70505;SDS011;58032;49.820;6.274;2024-01-25T00:10:42;18.57;;;1.87;;
70505;SDS011;58032;49.820;6.274;2024-01-25T00:13:09;17.98;;;2.35;;
70505;SDS011;58032;49.820;6.274;2024-01-25T00:15:36;19.23;;;2.40;;
70505;SDS011;58032;49.820;6.274;2024-01-25T00:18:03;19.85;;;2.42;;
70505;SDS011;58032;49.820;6.274;2024-01-25T00:20:30;21.92;;;2.05;;
70505;SDS011;58032;49.820;6.274;2024-01-25T00:22:57;13.53;;;1.77;;
70505;SDS011;58032;49.820;6.274;2024-01-25T00:25:24;22.88;;;1.92;;
70505;SDS011;58032;49.820;6.274;2024-01-25T00:27:51;16.38;;;2.60;;
70505;SDS011;58032;49.820;6.274;2024-01-25T00:30:18;22.35;;;2.13;;
70505;SDS011;58032;49.820;6.274;2024-01-25T00:32:45;15.82;;;1.50;;
70505;SDS011;58032;49.820;6.274;2024-01-25T00:35:12;12.17;;;1.50;;
70505;SDS011;58032;49.820;6.274;2024-01-25T00:37:40;16.20;;;1.92;;
70505;SDS011;58032;49.820;6.274;2024-01-25T00:40:08;18.10;;;2.13;;
70505;SDS011;58032;49.820;6.274;2024-01-25T00:42:45;15.48;;;2.03;;
70505;SDS011;58032;49.820;6.274;2024-01-25T00:45:20;18.20;;;1.73;;
70505;SDS011;58032;49.820;6.274;2024-01-25T00:47:48;13.63;;;1.97;;
70505;SDS011;58032;49.820;6.274;2024-01-25T00:50:16;14.48;;;2.15;;
70505;SDS011;58032;49.820;6.274;2024-01-25T00:52:49;16.38;;;1.75;;
70505;SDS011;58032;49.820;6.274;2024-01-25T00:55:17;19.27;;;2.67;;
70505;SDS011;58032;49.820;6.274;2024-01-25T00:57:44;12.85;;;1.90;;
70505;SDS011;58032;49.820;6.274;2024-01-25T01:00:12;21.57;;;2.63;;
70505;SDS011;58032;49.820;6.274;2024-01-25T01:02:40;12.77;;;1.60;;
70505;SDS011;58032;49.820;6.274;2024-01-25T01:05:10;19.17;;;2.47;;
70505;SDS011;58032;49.820;6.274;2024-01-25T01:07:38;24.08;;;2.40;;
70505;SDS011;58032;49.820;6.274;2024-01-25T01:10:08;20.45;;;2.13;;
70505;SDS011;58032;49.820;6.274;2024-01-25T01:12:35;14.03;;;2.10;;
70505;SDS011;58032;49.820;6.274;2024-01-25T01:15:03;15.25;;;1.77;;
70505;SDS011;58032;49.820;6.274;2024-01-25T01:17:30;14.35;;;1.60;;
70505;SDS011;58032;49.820;6.274;2024-01-25T01:19:57;14.60;;;2.17;;
70505;SDS011;58032;49.820;6.274;2024-01-25T01:22:24;14.20;;;2.03;;
70505;SDS011;58032;49.820;6.274;2024-01-25T01:24:51;16.37;;;1.70;;
70505;SDS011;58032;49.820;6.274;2024-01-25T01:27:18;21.38;;;1.92;;
70505;SDS011;58032;49.820;6.274;2024-01-25T01:29:47;17.00;;;1.75;;
70505;SDS011;58032;49.820;6.274;2024-01-25T01:32:14;13.52;;;1.80;;
70505;SDS011;58032;49.820;6.274;2024-01-25T01:34:41;15.48;;;2.15;;
70505;SDS011;58032;49.820;6.274;2024-01-25T01:37:08;17.47;;;2.37;;
70505;SDS011;58032;49.820;6.274;2024-01-25T01:39:34;20.65;;;2.47;;
70505;SDS011;58032;49.820;6.274;2024-01-25T01:42:02;19.92;;;2.60;;
70505;SDS011;58032;49.820;6.274;2024-01-25T01:44:29;18.30;;;2.25;;
70505;SDS011;58032;49.820;6.274;2024-01-25T01:46:56;14.82;;;2.25;;
70505;SDS011;58032;49.820;6.274;2024-01-25T01:49:24;21.40;;;2.20;;
70505;SDS011;58032;49.820;6.274;2024-01-25T01:51:52;16.08;;;1.63;;
70505;SDS011;58032;49.820;6.274;2024-01-25T01:54:19;16.05;;;1.70;;
70505;SDS011;58032;49.820;6.274;2024-01-25T01:56:46;24.30;;;2.42;;
70505;SDS011;58032;49.820;6.274;2024-01-25T01:59:13;19.80;;;2.35;;
70505;SDS011;58032;49.820;6.274;2024-01-25T02:01:41;22.43;;;1.87;;
70505;SDS011;58032;49.820;6.274;2024-01-25T02:04:08;12.85;;;1.00;;
70505;SDS011;58032;49.820;6.274;2024-01-25T02:06:35;14.98;;;1.50;;
70505;SDS011;58032;49.820;6.274;2024-01-25T02:09:03;17.73;;;1.38;;
70505;SDS011;58032;49.820;6.274;2024-01-25T02:11:31;9.48;;;1.55;;
70505;SDS011;58032;49.820;6.274;2024-01-25T02:13:58;16.10;;;2.40;;
70505;SDS011;58032;49.820;6.274;2024-01-25T02:16:25;20.38;;;1.40;;
70505;SDS011;58032;49.820;6.274;2024-01-25T02:18:52;15.38;;;1.88;;
70505;SDS011;58032;49.820;6.274;2024-01-25T02:21:21;18.27;;;1.65;;
70505;SDS011;58032;49.820;6.274;2024-01-25T02:23:48;14.80;;;1.67;;
70505;SDS011;58032;49.820;6.274;2024-01-25T02:26:15;16.23;;;2.23;;
70505;SDS011;58032;49.820;6.274;2024-01-25T02:28:42;18.95;;;1.75;;
70505;SDS011;58032;49.820;6.274;2024-01-25T02:31:08;16.40;;;1.58;;
70505;SDS011;58032;49.820;6.274;2024-01-25T02:33:35;12.63;;;0.95;;
70505;SDS011;58032;49.820;6.274;2024-01-25T02:36:02;17.20;;;1.48;;
70505;SDS011;58032;49.820;6.274;2024-01-25T02:38:29;15.40;;;1.40;;
70505;SDS011;58032;49.820;6.274;2024-01-25T02:40:56;17.33;;;1.58;;
70505;SDS011;58032;49.820;6.274;2024-01-25T02:43:23;20.58;;;1.42;;
70505;SDS011;58032;49.820;6.274;2024-01-25T02:45:50;15.48;;;1.50;;
70505;SDS011;58032;49.820;6.274;2024-01-25T02:48:17;17.80;;;1.48;;
70505;SDS011;58032;49.820;6.274;2024-01-25T02:50:44;16.07;;;1.90;;
70505;SDS011;58032;49.820;6.274;2024-01-25T02:53:11;18.38;;;1.50;;
70505;SDS011;58032;49.820;6.274;2024-01-25T02:55:38;19.13;;;1.58;;
70505;SDS011;58032;49.820;6.274;2024-01-25T02:58:05;17.58;;;1.55;;
70505;SDS011;58032;49.820;6.274;2024-01-25T03:00:32;18.27;;;1.98;;
70505;SDS011;58032;49.820;6.274;2024-01-25T03:02:59;23.10;;;1.90;;
70505;SDS011;58032;49.820;6.274;2024-01-25T03:05:25;15.25;;;2.30;;
70505;SDS011;58032;49.820;6.274;2024-01-25T03:07:52;12.45;;;1.63;;
70505;SDS011;58032;49.820;6.274;2024-01-25T03:10:19;26.60;;;2.58;;
70505;SDS011;58032;49.820;6.274;2024-01-25T03:12:47;19.00;;;1.90;;
70505;SDS011;58032;49.820;6.274;2024-01-25T03:15:14;14.70;;;1.30;;
70505;SDS011;58032;49.820;6.274;2024-01-25T03:17:41;14.93;;;1.67;;
70505;SDS011;58032;49.820;6.274;2024-01-25T03:20:11;24.75;;;1.92;;
70505;SDS011;58032;49.820;6.274;2024-01-25T03:22:38;13.13;;;1.63;;
70505;SDS011;58032;49.820;6.274;2024-01-25T03:25:04;10.60;;;2.25;;
70505;SDS011;58032;49.820;6.274;2024-01-25T03:27:32;17.13;;;1.40;;
70505;SDS011;58032;49.820;6.274;2024-01-25T03:29:59;18.85;;;1.55;;
70505;SDS011;58032;49.820;6.274;2024-01-25T03:32:26;14.32;;;1.45;;
70505;SDS011;58032;49.820;6.274;2024-01-25T03:34:53;21.58;;;1.85;;
70505;SDS011;58032;49.820;6.274;2024-01-25T03:37:20;16.75;;;2.17;;
70505;SDS011;58032;49.820;6.274;2024-01-25T03:39:47;14.80;;;1.80;;
70505;SDS011;58032;49.820;6.274;2024-01-25T03:42:13;19.50;;;1.77;;
70505;SDS011;58032;49.820;6.274;2024-01-25T03:44:40;15.43;;;1.95;;
70505;SDS011;58032;49.820;6.274;2024-01-25T03:47:09;14.18;;;1.35;;
70505;SDS011;58032;49.820;6.274;2024-01-25T03:49:36;17.80;;;1.58;;
70505;SDS011;58032;49.820;6.274;2024-01-25T03:52:04;15.40;;;2.30;;
70505;SDS011;58032;49.820;6.274;2024-01-25T03:54:31;21.85;;;2.03;;
70505;SDS011;58032;49.820;6.274;2024-01-25T03:56:58;24.98;;;2.10;;
70505;SDS011;58032;49.820;6.274;2024-01-25T03:59:25;11.13;;;1.42;;
70505;SDS011;58032;49.820;6.274;2024-01-25T04:01:52;10.63;;;1.42;;
70505;SDS011;58032;49.820;6.274;2024-01-25T04:04:19;17.53;;;1.40;;
70505;SDS011;58032;49.820;6.274;2024-01-25T04:06:46;14.38;;;2.00;;
70505;SDS011;58032;49.820;6.274;2024-01-25T04:09:13;20.42;;;1.73;;
70505;SDS011;58032;49.820;6.274;2024-01-25T04:11:41;18.42;;;1.73;;
70505;SDS011;58032;49.820;6.274;2024-01-25T04:14:08;17.58;;;1.10;;
70505;SDS011;58032;49.820;6.274;2024-01-25T04:16:35;12.37;;;1.30;;
70505;SDS011;58032;49.820;6.274;2024-01-25T04:19:02;17.33;;;1.70;;
70505;SDS011;58032;49.820;6.274;2024-01-25T04:21:29;16.95;;;1.95;;
70505;SDS011;58032;49.820;6.274;2024-01-25T04:23:56;15.02;;;1.27;;
70505;SDS011;58032;49.820;6.274;2024-01-25T04:26:23;13.68;;;1.63;;
70505;SDS011;58032;49.820;6.274;2024-01-25T04:28:50;16.80;;;1.90;;
70505;SDS011;58032;49.820;6.274;2024-01-25T04:31:17;14.85;;;1.27;;
70505;SDS011;58032;49.820;6.274;2024-01-25T04:33:44;16.38;;;1.95;;
70505;SDS011;58032;49.820;6.274;2024-01-25T04:36:12;13.18;;;1.60;;
70505;SDS011;58032;49.820;6.274;2024-01-25T04:38:39;20.67;;;2.28;;
70505;SDS011;58032;49.820;6.274;2024-01-25T04:41:06;14.33;;;1.30;;
70505;SDS011;58032;49.820;6.274;2024-01-25T04:43:33;16.35;;;1.35;;
70505;SDS011;58032;49.820;6.274;2024-01-25T04:46:02;15.57;;;1.50;;
70505;SDS011;58032;49.820;6.274;2024-01-25T04:48:30;19.48;;;1.40;;
70505;SDS011;58032;49.820;6.274;2024-01-25T04:50:57;18.67;;;2.50;;
70505;SDS011;58032;49.820;6.274;2024-01-25T04:53:27;24.20;;;1.70;;
70505;SDS011;58032;49.820;6.274;2024-01-25T04:55:54;15.40;;;1.42;;
70505;SDS011;58032;49.820;6.274;2024-01-25T04:58:22;19.55;;;1.98;;
70505;SDS011;58032;49.820;6.274;2024-01-25T05:00:49;14.07;;;1.20;;
70505;SDS011;58032;49.820;6.274;2024-01-25T05:03:17;18.88;;;2.35;;
70505;SDS011;58032;49.820;6.274;2024-01-25T05:05:44;15.53;;;2.60;;
70505;SDS011;58032;49.820;6.274;2024-01-25T05:08:11;22.65;;;2.08;;
70505;SDS011;58032;49.820;6.274;2024-01-25T05:10:38;17.73;;;2.05;;
70505;SDS011;58032;49.820;6.274;2024-01-25T05:13:04;15.10;;;1.85;;
70505;SDS011;58032;49.820;6.274;2024-01-25T05:15:31;18.00;;;2.22;;
70505;SDS011;58032;49.820;6.274;2024-01-25T05:17:58;20.20;;;1.93;;
70505;SDS011;58032;49.820;6.274;2024-01-25T05:20:25;22.58;;;2.25;;
70505;SDS011;58032;49.820;6.274;2024-01-25T05:22:59;17.30;;;1.90;;
70505;SDS011;58032;49.820;6.274;2024-01-25T05:25:26;20.73;;;2.03;;
70505;SDS011;58032;49.820;6.274;2024-01-25T05:27:54;20.13;;;1.98;;
70505;SDS011;58032;49.820;6.274;2024-01-25T05:30:22;16.67;;;2.30;;
70505;SDS011;58032;49.820;6.274;2024-01-25T05:32:49;15.30;;;1.88;;
70505;SDS011;58032;49.820;6.274;2024-01-25T05:35:17;19.40;;;1.98;;
70505;SDS011;58032;49.820;6.274;2024-01-25T05:37:43;17.70;;;1.98;;
70505;SDS011;58032;49.820;6.274;2024-01-25T05:40:11;17.80;;;1.60;;
70505;SDS011;58032;49.820;6.274;2024-01-25T05:42:38;18.43;;;1.50;;
70505;SDS011;58032;49.820;6.274;2024-01-25T05:45:07;18.33;;;1.77;;
70505;SDS011;58032;49.820;6.274;2024-01-25T05:47:35;19.05;;;2.50;;
70505;SDS011;58032;49.820;6.274;2024-01-25T05:50:02;25.90;;;2.67;;
70505;SDS011;58032;49.820;6.274;2024-01-25T05:52:31;16.77;;;1.80;;
70505;SDS011;58032;49.820;6.274;2024-01-25T05:54:58;12.73;;;1.73;;
70505;SDS011;58032;49.820;6.274;2024-01-25T05:57:26;26.88;;;3.08;;
70505;SDS011;58032;49.820;6.274;2024-01-25T05:59:54;23.55;;;2.13;;
70505;SDS011;58032;49.820;6.274;2024-01-25T06:02:21;16.83;;;1.55;;
70505;SDS011;58032;49.820;6.274;2024-01-25T06:04:48;18.13;;;2.78;;
70505;SDS011;58032;49.820;6.274;2024-01-25T06:07:15;10.67;;;1.17;;
70505;SDS011;58032;49.820;6.274;2024-01-25T06:09:42;15.07;;;1.48;;
70505;SDS011;58032;49.820;6.274;2024-01-25T06:12:09;20.35;;;1.63;;
70505;SDS011;58032;49.820;6.274;2024-01-25T06:14:36;18.45;;;1.38;;
70505;SDS011;58032;49.820;6.274;2024-01-25T06:17:03;14.38;;;1.80;;
70505;SDS011;58032;49.820;6.274;2024-01-25T06:19:30;17.10;;;2.40;;
70505;SDS011;58032;49.820;6.274;2024-01-25T06:21:57;17.15;;;1.58;;
70505;SDS011;58032;49.820;6.274;2024-01-25T06:24:24;15.00;;;2.03;;
70505;SDS011;58032;49.820;6.274;2024-01-25T06:26:52;17.95;;;1.40;;
70505;SDS011;58032;49.820;6.274;2024-01-25T06:29:19;14.07;;;2.22;;
70505;SDS011;58032;49.820;6.274;2024-01-25T06:31:46;13.53;;;0.90;;
70505;SDS011;58032;49.820;6.274;2024-01-25T06:34:13;18.35;;;1.65;;
70505;SDS011;58032;49.820;6.274;2024-01-25T06:36:40;22.40;;;2.47;;
70505;SDS011;58032;49.820;6.274;2024-01-25T06:39:07;22.92;;;1.42;;
70505;SDS011;58032;49.820;6.274;2024-01-25T06:41:35;18.58;;;2.00;;
70505;SDS011;58032;49.820;6.274;2024-01-25T06:44:02;14.73;;;1.47;;
70505;SDS011;58032;49.820;6.274;2024-01-25T06:46:29;13.98;;;1.48;;
70505;SDS011;58032;49.820;6.274;2024-01-25T06:48:56;21.63;;;1.60;;
70505;SDS011;58032;49.820;6.274;2024-01-25T06:51:23;23.08;;;2.42;;
70505;SDS011;58032;49.820;6.274;2024-01-25T06:53:50;11.85;;;2.22;;
70505;SDS011;58032;49.820;6.274;2024-01-25T06:56:17;21.47;;;2.00;;
70505;SDS011;58032;49.820;6.274;2024-01-25T06:58:44;20.73;;;2.08;;
70505;SDS011;58032;49.820;6.274;2024-01-25T07:01:11;18.83;;;2.20;;
70505;SDS011;58032;49.820;6.274;2024-01-25T07:03:38;17.77;;;1.92;;
70505;SDS011;58032;49.820;6.274;2024-01-25T07:06:05;20.27;;;2.13;;
70505;SDS011;58032;49.820;6.274;2024-01-25T07:08:32;23.27;;;2.00;;
70505;SDS011;58032;49.820;6.274;2024-01-25T07:10:59;12.63;;;1.23;;
70505;SDS011;58032;49.820;6.274;2024-01-25T07:13:28;22.77;;;1.80;;
70505;SDS011;58032;49.820;6.274;2024-01-25T07:15:55;18.27;;;1.63;;
70505;SDS011;58032;49.820;6.274;2024-01-25T07:18:22;15.68;;;1.63;;
70505;SDS011;58032;49.820;6.274;2024-01-25T07:20:51;19.73;;;1.90;;
70505;SDS011;58032;49.820;6.274;2024-01-25T07:23:18;20.70;;;2.28;;
70505;SDS011;58032;49.820;6.274;2024-01-25T07:25:45;23.38;;;1.85;;
70505;SDS011;58032;49.820;6.274;2024-01-25T07:28:12;15.75;;;1.55;;
70505;SDS011;58032;49.820;6.274;2024-01-25T07:30:39;16.15;;;2.08;;
70505;SDS011;58032;49.820;6.274;2024-01-25T07:33:06;20.60;;;2.37;;
70505;SDS011;58032;49.820;6.274;2024-01-25T07:35:33;17.50;;;2.03;;
70505;SDS011;58032;49.820;6.274;2024-01-25T07:38:00;22.33;;;2.38;;
70505;SDS011;58032;49.820;6.274;2024-01-25T07:40:27;17.67;;;1.58;;
70505;SDS011;58032;49.820;6.274;2024-01-25T07:42:54;21.20;;;2.65;;
70505;SDS011;58032;49.820;6.274;2024-01-25T07:45:21;17.80;;;2.53;;
70505;SDS011;58032;49.820;6.274;2024-01-25T07:47:47;10.77;;;1.88;;
70505;SDS011;58032;49.820;6.274;2024-01-25T07:50:16;18.23;;;1.95;;
70505;SDS011;58032;49.820;6.274;2024-01-25T07:52:43;19.98;;;1.58;;
70505;SDS011;58032;49.820;6.274;2024-01-25T07:55:10;16.75;;;1.67;;
70505;SDS011;58032;49.820;6.274;2024-01-25T07:57:37;20.40;;;2.23;;
70505;SDS011;58032;49.820;6.274;2024-01-25T08:00:04;18.00;;;1.98;;
70505;SDS011;58032;49.820;6.274;2024-01-25T08:02:32;17.65;;;2.28;;
70505;SDS011;58032;49.820;6.274;2024-01-25T08:04:59;17.85;;;1.77;;
70505;SDS011;58032;49.820;6.274;2024-01-25T08:07:26;17.20;;;1.90;;
70505;SDS011;58032;49.820;6.274;2024-01-25T08:09:53;19.20;;;1.90;;
70505;SDS011;58032;49.820;6.274;2024-01-25T08:12:22;17.45;;;1.88;;
70505;SDS011;58032;49.820;6.274;2024-01-25T08:14:49;16.17;;;2.00;;
70505;SDS011;58032;49.820;6.274;2024-01-25T08:17:16;18.75;;;1.80;;
70505;SDS011;58032;49.820;6.274;2024-01-25T08:19:43;18.02;;;1.65;;
70505;SDS011;58032;49.820;6.274;2024-01-25T08:22:13;24.37;;;2.53;;
70505;SDS011;58032;49.820;6.274;2024-01-25T08:24:40;16.88;;;2.38;;
70505;SDS011;58032;49.820;6.274;2024-01-25T08:27:07;14.98;;;2.22;;
70505;SDS011;58032;49.820;6.274;2024-01-25T08:29:34;11.90;;;1.80;;
70505;SDS011;58032;49.820;6.274;2024-01-25T08:32:01;19.50;;;2.50;;
70505;SDS011;58032;49.820;6.274;2024-01-25T08:34:27;13.20;;;1.70;;
70505;SDS011;58032;49.820;6.274;2024-01-25T08:36:54;20.65;;;2.38;;
70505;SDS011;58032;49.820;6.274;2024-01-25T08:39:21;12.90;;;1.75;;
70505;SDS011;58032;49.820;6.274;2024-01-25T08:41:48;20.98;;;1.88;;
70505;SDS011;58032;49.820;6.274;2024-01-25T08:44:16;15.70;;;2.00;;
70505;SDS011;58032;49.820;6.274;2024-01-25T08:46:43;18.73;;;2.00;;
70505;SDS011;58032;49.820;6.274;2024-01-25T08:49:11;16.83;;;2.00;;
70505;SDS011;58032;49.820;6.274;2024-01-25T08:51:39;22.48;;;2.47;;
70505;SDS011;58032;49.820;6.274;2024-01-25T08:54:05;17.90;;;2.90;;
70505;SDS011;58032;49.820;6.274;2024-01-25T08:56:32;13.77;;;2.42;;
70505;SDS011;58032;49.820;6.274;2024-01-25T08:58:59;14.07;;;1.80;;
70505;SDS011;58032;49.820;6.274;2024-01-25T09:01:26;14.32;;;1.95;;
70505;SDS011;58032;49.820;6.274;2024-01-25T09:03:53;20.90;;;3.25;;
70505;SDS011;58032;49.820;6.274;2024-01-25T09:06:20;23.13;;;2.47;;
70505;SDS011;58032;49.820;6.274;2024-01-25T09:08:48;14.95;;;1.95;;
70505;SDS011;58032;49.820;6.274;2024-01-25T09:11:15;15.50;;;2.57;;
70505;SDS011;58032;49.820;6.274;2024-01-25T09:13:42;20.02;;;2.45;;
70505;SDS011;58032;49.820;6.274;2024-01-25T09:16:11;20.85;;;2.58;;
70505;SDS011;58032;49.820;6.274;2024-01-25T09:18:38;18.10;;;2.13;;
70505;SDS011;58032;49.820;6.274;2024-01-25T09:21:05;24.05;;;3.05;;
70505;SDS011;58032;49.820;6.274;2024-01-25T09:23:32;18.97;;;2.33;;
70505;SDS011;58032;49.820;6.274;2024-01-25T09:25:59;23.85;;;3.50;;
70505;SDS011;58032;49.820;6.274;2024-01-25T09:28:26;18.85;;;3.33;;
70505;SDS011;58032;49.820;6.274;2024-01-25T09:30:53;20.73;;;3.13;;
70505;SDS011;58032;49.820;6.274;2024-01-25T09:33:20;16.45;;;2.65;;
70505;SDS011;58032;49.820;6.274;2024-01-25T09:35:47;16.90;;;2.00;;
70505;SDS011;58032;49.820;6.274;2024-01-25T09:38:14;21.45;;;2.22;;
70505;SDS011;58032;49.820;6.274;2024-01-25T09:40:41;13.73;;;1.35;;
70505;SDS011;58032;49.820;6.274;2024-01-25T09:43:08;24.90;;;2.65;;
70505;SDS011;58032;49.820;6.274;2024-01-25T09:45:35;18.13;;;1.63;;
70505;SDS011;58032;49.820;6.274;2024-01-25T09:48:02;18.63;;;1.77;;
70505;SDS011;58032;49.820;6.274;2024-01-25T09:50:31;20.20;;;1.60;;
70505;SDS011;58032;49.820;6.274;2024-01-25T09:53:00;21.30;;;2.45;;
70505;SDS011;58032;49.820;6.274;2024-01-25T09:55:29;18.45;;;2.65;;
70505;SDS011;58032;49.820;6.274;2024-01-25T09:57:59;16.75;;;1.80;;
70505;SDS011;58032;49.820;6.274;2024-01-25T10:00:26;18.33;;;1.80;;
70505;SDS011;58032;49.820;6.274;2024-01-25T10:02:54;15.65;;;2.05;;
70505;SDS011;58032;49.820;6.274;2024-01-25T10:05:21;16.20;;;1.92;;
70505;SDS011;58032;49.820;6.274;2024-01-25T10:07:48;14.63;;;1.67;;
70505;SDS011;58032;49.820;6.274;2024-01-25T10:10:15;17.48;;;2.05;;
70505;SDS011;58032;49.820;6.274;2024-01-25T10:12:42;19.37;;;2.57;;
70505;SDS011;58032;49.820;6.274;2024-01-25T10:15:10;15.77;;;2.13;;
70505;SDS011;58032;49.820;6.274;2024-01-25T10:17:38;20.15;;;2.58;;
70505;SDS011;58032;49.820;6.274;2024-01-25T10:20:13;17.88;;;2.75;;
70505;SDS011;58032;49.820;6.274;2024-01-25T10:22:42;16.13;;;2.47;;
70505;SDS011;58032;49.820;6.274;2024-01-25T10:25:13;9.40;;;1.90;;
70505;SDS011;58032;49.820;6.274;2024-01-25T10:27:41;17.63;;;2.15;;
70505;SDS011;58032;49.820;6.274;2024-01-25T10:30:09;10.75;;;1.58;;
70505;SDS011;58032;49.820;6.274;2024-01-25T10:32:37;17.77;;;2.22;;
70505;SDS011;58032;49.820;6.274;2024-01-25T10:35:04;15.80;;;1.80;;
70505;SDS011;58032;49.820;6.274;2024-01-25T10:37:31;13.90;;;1.80;;
70505;SDS011;58032;49.820;6.274;2024-01-25T10:39:59;14.50;;;2.28;;
70505;SDS011;58032;49.820;6.274;2024-01-25T10:42:26;13.98;;;2.30;;
70505;SDS011;58032;49.820;6.274;2024-01-25T10:44:53;17.55;;;2.22;;
70505;SDS011;58032;49.820;6.274;2024-01-25T10:47:20;13.77;;;2.17;;
70505;SDS011;58032;49.820;6.274;2024-01-25T10:49:47;14.83;;;2.30;;
70505;SDS011;58032;49.820;6.274;2024-01-25T10:52:16;20.02;;;2.00;;
70505;SDS011;58032;49.820;6.274;2024-01-25T10:54:43;15.15;;;2.13;;
70505;SDS011;58032;49.820;6.274;2024-01-25T10:57:10;16.70;;;2.47;;
70505;SDS011;58032;49.820;6.274;2024-01-25T10:59:37;16.55;;;1.52;;
70505;SDS011;58032;49.820;6.274;2024-01-25T11:02:04;11.87;;;1.70;;
70505;SDS011;58032;49.820;6.274;2024-01-25T11:04:31;21.90;;;2.22;;
70505;SDS011;58032;49.820;6.274;2024-01-25T11:07:07;15.13;;;1.65;;
70505;SDS011;58032;49.820;6.274;2024-01-25T11:09:38;14.48;;;1.70;;
70505;SDS011;58032;49.820;6.274;2024-01-25T11:12:10;19.35;;;1.70;;
70505;SDS011;58032;49.820;6.274;2024-01-25T11:14:39;13.50;;;1.30;;
70505;SDS011;58032;49.820;6.274;2024-01-25T11:17:18;7.82;;;1.52;;
70505;SDS011;58032;49.820;6.274;2024-01-25T11:19:47;14.05;;;1.60;;
70505;SDS011;58032;49.820;6.274;2024-01-25T11:22:15;15.48;;;2.17;;
70505;SDS011;58032;49.820;6.274;2024-01-25T11:24:42;17.30;;;2.10;;
70505;SDS011;58032;49.820;6.274;2024-01-25T11:27:09;18.33;;;1.57;;
70505;SDS011;58032;49.820;6.274;2024-01-25T11:29:39;15.77;;;2.20;;
70505;SDS011;58032;49.820;6.274;2024-01-25T11:32:09;16.10;;;2.28;;
70505;SDS011;58032;49.820;6.274;2024-01-25T11:34:36;12.15;;;2.28;;
70505;SDS011;58032;49.820;6.274;2024-01-25T11:37:03;14.00;;;2.53;;
70505;SDS011;58032;49.820;6.274;2024-01-25T11:39:30;12.97;;;2.10;;
70505;SDS011;58032;49.820;6.274;2024-01-25T11:41:58;19.83;;;3.03;;
70505;SDS011;58032;49.820;6.274;2024-01-25T11:44:25;17.65;;;2.22;;
70505;SDS011;58032;49.820;6.274;2024-01-25T11:46:55;22.38;;;3.13;;
70505;SDS011;58032;49.820;6.274;2024-01-25T11:49:23;23.95;;;3.38;;
70505;SDS011;58032;49.820;6.274;2024-01-25T11:51:51;23.87;;;3.97;;
70505;SDS011;58032;49.820;6.274;2024-01-25T11:54:18;28.10;;;3.35;;
70505;SDS011;58032;49.820;6.274;2024-01-25T11:56:45;25.55;;;3.70;;
70505;SDS011;58032;49.820;6.274;2024-01-25T11:59:13;24.95;;;3.90;;
70505;SDS011;58032;49.820;6.274;2024-01-25T12:01:40;25.10;;;3.78;;
70505;SDS011;58032;49.820;6.274;2024-01-25T12:04:07;20.90;;;3.60;;
70505;SDS011;58032;49.820;6.274;2024-01-25T12:06:35;19.45;;;3.55;;
70505;SDS011;58032;49.820;6.274;2024-01-25T12:09:06;22.75;;;3.17;;
70505;SDS011;58032;49.820;6.274;2024-01-25T12:11:36;25.70;;;4.00;;
70505;SDS011;58032;49.820;6.274;2024-01-25T12:14:04;23.40;;;4.28;;
70505;SDS011;58032;49.820;6.274;2024-01-25T12:16:31;22.13;;;3.13;;
70505;SDS011;58032;49.820;6.274;2024-01-25T12:18:59;22.02;;;4.10;;
70505;SDS011;58032;49.820;6.274;2024-01-25T12:21:26;27.55;;;3.78;;
70505;SDS011;58032;49.820;6.274;2024-01-25T12:23:53;24.55;;;3.40;;
70505;SDS011;58032;49.820;6.274;2024-01-25T12:26:20;22.55;;;4.20;;
70505;SDS011;58032;49.820;6.274;2024-01-25T12:28:47;29.73;;;4.70;;
70505;SDS011;58032;49.820;6.274;2024-01-25T12:31:16;21.92;;;3.90;;
70505;SDS011;58032;49.820;6.274;2024-01-25T12:33:44;21.48;;;4.22;;
70505;SDS011;58032;49.820;6.274;2024-01-25T12:36:11;23.33;;;3.90;;
70505;SDS011;58032;49.820;6.274;2024-01-25T12:38:38;23.25;;;5.25;;
70505;SDS011;58032;49.820;6.274;2024-01-25T12:41:05;28.93;;;4.27;;
70505;SDS011;58032;49.820;6.274;2024-01-25T12:43:32;23.75;;;4.00;;
70505;SDS011;58032;49.820;6.274;2024-01-25T12:45:59;17.98;;;3.65;;
70505;SDS011;58032;49.820;6.274;2024-01-25T12:48:28;25.60;;;4.45;;
70505;SDS011;58032;49.820;6.274;2024-01-25T12:50:55;20.80;;;4.10;;
70505;SDS011;58032;49.820;6.274;2024-01-25T12:53:22;19.17;;;3.67;;
70505;SDS011;58032;49.820;6.274;2024-01-25T12:55:49;24.98;;;4.78;;
70505;SDS011;58032;49.820;6.274;2024-01-25T12:58:16;17.73;;;3.75;;
70505;SDS011;58032;49.820;6.274;2024-01-25T13:00:43;23.60;;;3.40;;
70505;SDS011;58032;49.820;6.274;2024-01-25T13:03:11;22.52;;;3.63;;
70505;SDS011;58032;49.820;6.274;2024-01-25T13:05:39;18.73;;;2.90;;
70505;SDS011;58032;49.820;6.274;2024-01-25T13:08:06;15.25;;;3.15;;
70505;SDS011;58032;49.820;6.274;2024-01-25T13:10:33;19.30;;;4.25;;
70505;SDS011;58032;49.820;6.274;2024-01-25T13:13:00;22.90;;;4.35;;
70505;SDS011;58032;49.820;6.274;2024-01-25T13:15:27;17.20;;;3.92;;
70505;SDS011;58032;49.820;6.274;2024-01-25T13:17:56;18.50;;;2.33;;
70505;SDS011;58032;49.820;6.274;2024-01-25T13:20:23;17.40;;;2.88;;
70505;SDS011;58032;49.820;6.274;2024-01-25T13:22:50;17.90;;;3.50;;
70505;SDS011;58032;49.820;6.274;2024-01-25T13:25:17;21.95;;;3.25;;
70505;SDS011;58032;49.820;6.274;2024-01-25T13:27:44;14.63;;;2.72;;
70505;SDS011;58032;49.820;6.274;2024-01-25T13:30:11;13.40;;;3.30;;
70505;SDS011;58032;49.820;6.274;2024-01-25T13:32:40;17.48;;;3.42;;
70505;SDS011;58032;49.820;6.274;2024-01-25T13:35:07;12.57;;;2.75;;
70505;SDS011;58032;49.820;6.274;2024-01-25T13:37:34;16.20;;;2.88;;
70505;SDS011;58032;49.820;6.274;2024-01-25T13:40:01;9.50;;;2.42;;
70505;SDS011;58032;49.820;6.274;2024-01-25T13:42:30;12.63;;;2.83;;
70505;SDS011;58032;49.820;6.274;2024-01-25T13:44:57;13.65;;;2.55;;
70505;SDS011;58032;49.820;6.274;2024-01-25T13:47:24;13.13;;;2.42;;
70505;SDS011;58032;49.820;6.274;2024-01-25T13:49:51;10.18;;;2.30;;
70505;SDS011;58032;49.820;6.274;2024-01-25T13:52:18;8.57;;;2.45;;
70505;SDS011;58032;49.820;6.274;2024-01-25T13:54:49;14.10;;;2.60;;
70505;SDS011;58032;49.820;6.274;2024-01-25T13:57:16;15.07;;;4.10;;
70505;SDS011;58032;49.820;6.274;2024-01-25T13:59:43;11.30;;;2.25;;
70505;SDS011;58032;49.820;6.274;2024-01-25T14:02:10;10.82;;;2.00;;
70505;SDS011;58032;49.820;6.274;2024-01-25T14:04:37;10.48;;;2.58;;
70505;SDS011;58032;49.820;6.274;2024-01-25T14:07:05;8.33;;;2.60;;
70505;SDS011;58032;49.820;6.274;2024-01-25T14:09:32;8.57;;;1.95;;
70505;SDS011;58032;49.820;6.274;2024-01-25T14:11:59;6.18;;;2.05;;
70505;SDS011;58032;49.820;6.274;2024-01-25T14:14:26;5.47;;;1.88;;
70505;SDS011;58032;49.820;6.274;2024-01-25T14:16:53;9.57;;;1.83;;
70505;SDS011;58032;49.820;6.274;2024-01-25T14:19:20;6.73;;;1.80;;
70505;SDS011;58032;49.820;6.274;2024-01-25T14:21:47;6.35;;;1.83;;
70505;SDS011;58032;49.820;6.274;2024-01-25T14:24:22;6.10;;;1.60;;
70505;SDS011;58032;49.820;6.274;2024-01-25T14:26:49;5.40;;;1.65;;
70505;SDS011;58032;49.820;6.274;2024-01-25T14:29:16;5.10;;;1.00;;
70505;SDS011;58032;49.820;6.274;2024-01-25T14:31:43;4.50;;;1.10;;
70505;SDS011;58032;49.820;6.274;2024-01-25T14:34:10;7.72;;;1.45;;
70505;SDS011;58032;49.820;6.274;2024-01-25T14:36:37;3.65;;;1.00;;